Time;durP1;ratioP1;P1;durP2;ratioP2;P2;SDS_P1;SDS_P2;PMS_P1;PMS_P2;Temp;Humidity;BMP_temperature;BMP_pressure;BME280_temperature;BME280_humidity;BME280_pressure;Samples;Min_cycle;Max_cycle;Signal;HPM_P1;HPM_P2
2022/04/30 00:02:08;;;;;;;3.33;1.05;;;;;;;20.61;31.12;99981.16;5117349;27;20039;-64
2022/04/30 00:04:39;;;;;;;5.20;1.00;;;;;;;20.64;30.84;99970.94;5109424;28;20028;-64
2022/04/30 00:07:04;;;;;;;;;;;;;;;20.61;30.91;99970.41;5110402;28;20035;-65
2022/04/30 00:09:30;;;;;;;1.80;1.00;;;;;;;20.62;30.94;99959.50;5109242;28;19915;-66
2022/04/30 00:11:57;;;;;;;1.80;0.90;;;;;;;20.65;30.71;99967.22;5114273;28;20047;-65
2022/04/30 00:14:23;;;;;;;1.33;0.70;;;;;;;20.63;30.77;99974.63;5109264;28;20035;-65
2022/04/30 00:16:49;;;;;;;2.75;1.13;;;;;;;20.59;30.40;99968.75;5116341;28;20031;-66
2022/04/30 00:19:15;;;;;;;6.60;1.08;;;;;;;20.62;30.33;99969.41;5120304;28;20382;-66
2022/04/30 00:21:41;;;;;;;1.27;0.77;;;;;;;20.60;29.92;99969.59;5118877;28;20035;-66
2022/04/30 00:24:07;;;;;;;1.40;0.80;;;;;;;20.59;30.33;99984.88;5128166;28;20027;-66
2022/04/30 00:26:32;;;;;;;0.90;0.60;;;;;;;20.58;30.35;99982.38;5128098;28;20158;-66
2022/04/30 00:28:58;;;;;;;1.05;0.70;;;;;;;20.55;30.41;99971.97;5121007;28;20044;-66
2022/04/30 00:31:25;;;;;;;1.35;0.90;;;;;;;20.58;30.44;99987.75;5114678;27;20039;-66
2022/04/30 00:33:51;;;;;;;1.38;0.90;;;;;;;20.56;30.35;99979.00;5116242;28;20047;-66
2022/04/30 00:36:16;;;;;;;2.17;0.77;;;;;;;20.57;30.26;99986.06;5108573;28;20478;-66
2022/04/30 00:38:42;;;;;;;2.10;1.00;;;;;;;20.59;30.22;99981.34;5108849;28;20019;-65
2022/04/30 00:41:08;;;;;;;2.92;0.95;;;;;;;20.60;30.24;99996.47;5098451;28;20116;-65
2022/04/30 00:43:47;;;;;;;2.03;1.20;;;;;;;20.59;30.10;99970.59;5097133;28;20043;-65
2022/04/30 00:46:14;;;;;;;1.27;0.95;;;;;;;20.55;29.79;99986.25;5103214;28;20803;-65
2022/04/30 00:48:40;;;;;;;1.67;0.88;;;;;;;20.53;29.84;99988.28;5099743;28;20031;-66
2022/04/30 00:51:09;;;;;;;1.73;0.82;;;;;;;20.52;30.05;99978.53;5095889;28;20027;-67
2022/04/30 00:53:38;;;;;;;0.70;0.50;;;;;;;20.52;30.15;99983.06;5094732;28;20126;-66
2022/04/30 00:56:06;;;;;;;1.65;0.75;;;;;;;20.52;29.86;99989.28;5098813;28;20027;-66
2022/04/30 00:58:34;;;;;;;1.55;0.80;;;;;;;20.51;30.07;99976.03;5097199;28;20027;-65
2022/04/30 01:01:00;;;;;;;3.17;0.73;;;;;;;20.50;29.95;99985.09;5113810;28;20382;-66
2022/04/30 01:03:26;;;;;;;1.52;0.70;;;;;;;20.47;30.19;99991.66;5114013;28;20518;-66
2022/04/30 01:05:52;;;;;;;1.00;0.70;;;;;;;20.46;30.04;99989.97;5102255;28;20596;-65
2022/04/30 01:08:20;;;;;;;1.67;0.73;;;;;;;20.44;30.21;99986.63;5100496;28;20028;-65
2022/04/30 01:10:46;;;;;;;1.10;0.68;;;;;;;20.45;30.22;99995.53;5094600;28;20030;-65
2022/04/30 01:13:13;;;;;;;1.77;0.98;;;;;;;20.45;30.19;99990.97;5094520;28;20421;-65
2022/04/30 01:15:39;;;;;;;1.80;1.00;;;;;;;20.42;30.00;99994.88;5094251;28;20122;-65
2022/04/30 01:18:10;;;;;;;1.10;0.95;;;;;;;20.41;29.89;99993.19;5102803;28;20031;-65
2022/04/30 01:20:40;;;;;;;2.13;0.98;;;;;;;20.38;29.92;99987.34;5096807;28;20077;-66
2022/04/30 01:23:06;;;;;;;1.95;1.17;;;;;;;20.36;29.92;99992.91;5098054;28;20391;-65
2022/04/30 01:25:33;;;;;;;1.80;0.65;;;;;;;20.36;29.99;99989.34;5094263;28;20390;-65
2022/04/30 01:27:59;;;;;;;2.30;0.90;;;;;;;20.37;29.64;99999.91;5097431;28;20047;-66
2022/04/30 01:30:26;;;;;;;1.60;1.40;;;;;;;20.34;29.63;99989.53;5094411;28;20023;-66
2022/04/30 01:38:20;;;;;;;1.70;0.60;;;;;;;20.32;30.06;99988.88;5100322;28;20023;-66
2022/04/30 01:40:47;;;;;;;1.33;0.70;;;;;;;20.32;30.17;99991.56;5096474;28;20071;-66
2022/04/30 01:43:13;;;;;;;1.60;1.00;;;;;;;20.33;29.69;99987.00;5093673;28;20459;-66
2022/04/30 01:45:39;;;;;;;1.60;1.00;;;;;;;20.35;30.17;100001.97;5105647;28;20030;-66
2022/04/30 01:48:06;;;;;;;1.23;0.80;;;;;;;20.36;30.12;100000.94;5094386;28;20028;-66
2022/04/30 01:50:35;;;;;;;2.53;0.80;;;;;;;20.34;30.24;99994.91;5093833;28;20024;-66
2022/04/30 01:53:01;;;;;;;1.17;0.82;;;;;;;20.30;30.07;100001.63;5095429;28;20031;-66
2022/04/30 01:55:26;;;;;;;1.80;0.70;;;;;;;20.31;30.16;100000.63;5097505;28;20035;-66
2022/04/30 01:57:52;;;;;;;1.70;1.10;;;;;;;20.32;29.98;99999.63;5093508;28;20036;-66
2022/04/30 02:00:20;;;;;;;1.10;0.80;;;;;;;20.32;29.88;100004.13;5093201;28;20032;-66
2022/04/30 02:02:49;;;;;;;1.60;0.80;;;;;;;20.33;29.96;100000.44;5096614;28;20039;-67
2022/04/30 02:05:16;;;;;;;1.92;1.10;;;;;;;20.31;30.20;100005.16;5093113;28;20040;-67
2022/04/30 02:07:49;;;;;;;3.00;1.23;;;;;;;20.30;29.99;100001.63;5093244;28;20035;-67
2022/04/30 02:10:15;;;;;;;4.80;0.80;;;;;;;20.28;30.19;99999.13;5093417;28;20056;-67
2022/04/30 02:12:41;;;;;;;1.23;0.70;;;;;;;20.27;30.09;100004.66;5096836;28;20107;-66
2022/04/30 02:15:08;;;;;;;0.90;0.70;;;;;;;20.31;30.13;99999.78;5104654;28;20042;-66
2022/04/30 02:17:38;;;;;;;0.55;0.55;;;;;;;20.31;29.88;100007.84;5111883;28;20613;-66
2022/04/30 02:20:25;;;;;;;1.02;0.65;;;;;;;20.28;30.06;99998.28;5112039;28;20371;-66
2022/04/30 02:22:54;;;;;;;0.82;0.63;;;;;;;20.28;30.29;100000.97;5094081;28;20043;-67
2022/04/30 02:25:21;;;;;;;2.33;0.63;;;;;;;20.28;30.56;100009.03;5093562;28;20114;-67
2022/04/30 02:27:49;;;;;;;1.85;0.90;;;;;;;20.26;29.84;100003.84;5092910;28;20024;-67
2022/04/30 02:30:20;;;;;;;0.75;0.68;;;;;;;20.26;29.90;100008.34;5092589;28;20119;-67
2022/04/30 02:32:46;;;;;;;;;;;;;;;20.20;30.15;100009.88;5095682;28;20039;-67
2022/04/30 02:35:17;;;;;;;1.02;0.77;;;;;;;20.22;30.05;100013.25;5092966;28;19911;-67
2022/04/30 02:37:44;;;;;;;1.02;0.60;;;;;;;20.24;29.92;100018.44;5093114;28;20424;-67
2022/04/30 02:40:12;;;;;;;0.75;0.55;;;;;;;20.27;29.90;100023.47;5092686;28;20538;-67
2022/04/30 02:42:38;;;;;;;1.75;0.95;;;;;;;20.28;29.87;100025.16;5098066;28;20032;-66
2022/04/30 02:45:05;;;;;;;0.82;0.68;;;;;;;20.28;29.91;100027.84;5092481;28;20510;-67
2022/04/30 02:47:31;;;;;;;0.90;0.60;;;;;;;20.26;29.91;100027.16;5092899;28;20027;-67
2022/04/30 02:49:57;;;;;;;1.58;0.70;;;;;;;20.23;29.84;100028.38;5093696;28;20461;-67
2022/04/30 02:52:22;;;;;;;1.17;0.57;;;;;;;20.23;29.75;100043.63;5099305;28;20039;-66
2022/04/30 02:54:48;;;;;;;0.77;0.70;;;;;;;20.24;29.73;100039.94;5111894;28;20443;-65
2022/04/30 02:57:14;;;;;;;1.30;0.70;;;;;;;20.22;29.65;100040.13;5111349;28;20120;-67
2022/04/30 02:59:54;;;;;;;1.30;0.65;;;;;;;20.22;29.91;100036.59;5113608;28;20027;-67
2022/04/30 03:02:23;;;;;;;1.35;0.68;;;;;;;20.21;29.96;100043.00;5113357;28;20195;-67
2022/04/30 03:04:51;;;;;;;0.93;0.60;;;;;;;20.22;30.18;100040.13;5113174;28;20039;-67
2022/04/30 03:07:22;;;;;;;1.73;0.60;;;;;;;20.25;30.02;100042.47;5112853;28;20058;-67
2022/04/30 03:09:48;;;;;;;4.13;2.25;;;;;;;20.26;30.17;100040.59;5113361;28;20073;-67
2022/04/30 03:12:15;;;;;;;0.70;0.50;;;;;;;20.26;29.56;100056.72;5113187;28;20031;-67
2022/04/30 03:14:41;;;;;;;1.05;0.73;;;;;;;20.25;29.17;100049.66;5113605;28;20027;-67
2022/04/30 03:22:35;;;;;;;0.70;0.50;;;;;;;20.29;29.21;100040.25;5113912;28;20047;-67
2022/04/30 03:25:01;;;;;;;1.38;0.60;;;;;;;20.29;29.29;100045.63;5113330;28;20106;-67
2022/04/30 03:27:27;;;;;;;0.68;0.50;;;;;;;20.33;29.78;100044.28;5113069;28;20077;-67
2022/04/30 03:29:52;;;;;;;0.77;0.50;;;;;;;20.39;29.50;100054.34;5112745;28;20055;-67
2022/04/30 03:32:20;;;;;;;0.95;0.50;;;;;;;20.41;29.12;100051.50;5112912;28;20039;-67
2022/04/30 03:34:46;;;;;;;1.02;0.60;;;;;;;20.43;29.32;100055.69;5112727;28;20173;-67
2022/04/30 03:37:11;;;;;;;1.08;0.50;;;;;;;20.50;29.36;100065.75;5112068;28;20122;-67
2022/04/30 03:39:37;;;;;;;2.03;0.30;;;;;;;20.52;29.26;100074.44;5113119;28;20466;-67
2022/04/30 03:42:02;;;;;;;3.10;0.47;;;;;;;20.53;28.87;100066.22;5112136;28;20531;-67
2022/04/30 03:44:28;;;;;;;1.30;0.52;;;;;;;20.57;29.17;100061.34;5113166;28;20038;-67
2022/04/30 03:46:53;;;;;;;1.67;0.73;;;;;;;20.62;28.75;100061.66;5111922;28;20039;-67
2022/04/30 03:49:19;;;;;;;0.70;0.50;;;;;;;20.71;28.49;100066.00;5112974;28;20057;-67
2022/04/30 03:51:44;;;;;;;1.30;0.50;;;;;;;20.83;28.39;100060.25;5111866;28;20092;-67
2022/04/30 03:54:10;;;;;;;0.70;0.55;;;;;;;21.09;28.20;100070.72;5112994;28;20535;-67
2022/04/30 03:56:35;;;;;;;0.75;0.55;;;;;;;21.20;27.61;100077.56;5112797;28;20063;-66
2022/04/30 03:59:01;;;;;;;0.80;0.65;;;;;;;21.33;27.74;100063.50;5112662;28;20028;-66
2022/04/30 04:01:27;;;;;;;0.93;0.50;;;;;;;21.38;27.50;100066.50;5112241;28;20059;-66
2022/04/30 04:03:53;;;;;;;0.40;0.32;;;;;;;21.40;27.50;100072.56;5112931;28;20032;-66
2022/04/30 04:06:18;;;;;;;1.77;1.00;;;;;;;21.38;27.62;100074.56;5112817;28;20383;-66
2022/04/30 04:08:44;;;;;;;2.92;0.80;;;;;;;21.33;27.57;100075.13;5111923;28;20471;-66
2022/04/30 04:11:13;;;;;;;1.05;0.60;;;;;;;21.30;27.87;100070.09;5112706;28;20393;-66
2022/04/30 04:19:08;;;;;;;0.60;0.40;;;;;;;21.18;28.03;100077.72;5115989;28;20089;-66
2022/04/30 04:21:34;;;;;;;0.50;0.45;;;;;;;21.15;28.11;100079.94;5115791;28;20122;-66
2022/04/30 04:26:44;;;;;;;1.02;0.50;;;;;;;21.04;28.40;100092.78;5116385;28;20058;-66
2022/04/30 04:29:10;;;;;;;1.00;0.50;;;;;;;21.01;28.60;100095.81;5115502;28;20562;-66
2022/04/30 04:31:36;;;;;;;0.60;0.50;;;;;;;20.98;28.54;100090.78;5115050;28;20042;-66
2022/04/30 04:34:02;;;;;;;0.60;0.40;;;;;;;21.00;28.55;100098.69;5116349;28;20036;-66
2022/04/30 04:36:28;;;;;;;0.93;0.50;;;;;;;21.01;28.21;100101.19;5115475;28;20032;-65
2022/04/30 04:38:53;;;;;;;1.08;0.57;;;;;;;21.01;28.08;100105.75;5116009;28;20063;-66
2022/04/30 04:41:19;;;;;;;1.15;0.70;;;;;;;20.99;28.29;100102.41;5114910;28;20039;-66
2022/04/30 04:43:44;;;;;;;0.63;0.50;;;;;;;21.01;28.40;100111.13;5115217;28;20043;-65
2022/04/30 04:46:10;;;;;;;0.93;0.60;;;;;;;21.02;28.33;100113.63;5115090;28;20038;-67
2022/04/30 04:48:36;;;;;;;1.15;0.65;;;;;;;21.06;28.40;100113.28;5115712;28;20035;-66
2022/04/30 04:51:03;;;;;;;1.10;0.50;;;;;;;21.06;28.39;100106.03;5114717;28;20042;-67
2022/04/30 04:53:29;;;;;;;1.75;0.50;;;;;;;21.10;28.79;100115.44;5115914;28;20028;-67
2022/04/30 04:55:55;;;;;;;0.35;0.35;;;;;;;21.14;28.46;100114.09;5115129;28;20171;-67
2022/04/30 04:58:20;;;;;;;1.63;0.50;;;;;;;21.16;28.03;100117.44;5115781;28;20056;-67
2022/04/30 05:00:46;;;;;;;1.80;0.35;;;;;;;21.24;28.55;100111.19;5114632;28;20035;-67
2022/04/30 05:03:13;;;;;;;0.50;0.40;;;;;;;21.25;28.19;100120.91;5115055;28;20508;-67
2022/04/30 05:05:38;;;;;;;1.67;0.73;;;;;;;21.26;27.85;100119.91;5114542;28;20472;-67
2022/04/30 05:08:04;;;;;;;3.70;0.60;;;;;;;21.30;27.80;100121.22;5114375;28;20036;-66
2022/04/30 05:10:30;;;;;;;0.82;0.80;;;;;;;21.34;27.86;100117.16;5115581;28;20405;-67
2022/04/30 05:12:55;;;;;;;1.40;0.73;;;;;;;21.34;27.58;100127.09;5115956;28;20375;-68
2022/04/30 05:15:21;;;;;;;0.75;0.55;;;;;;;21.31;27.50;100122.91;5113417;28;20498;-67
2022/04/30 05:17:47;;;;;;;1.30;0.55;;;;;;;21.38;27.53;100132.97;5115573;28;20119;-67
2022/04/30 05:20:12;;;;;;;1.08;0.70;;;;;;;21.62;27.17;100122.06;5115502;28;20122;-67
2022/04/30 05:22:38;;;;;;;1.67;0.77;;;;;;;21.89;26.81;100125.22;5115227;28;20070;-67
2022/04/30 05:25:03;;;;;;;1.27;0.63;;;;;;;21.91;26.87;100125.91;5114250;28;20039;-67
2022/04/30 05:27:29;;;;;;;1.10;0.60;;;;;;;21.97;26.79;100124.31;5114534;28;20035;-67
2022/04/30 05:29:54;;;;;;;1.60;0.90;;;;;;;21.98;26.56;100117.09;5114705;28;20063;-67
2022/04/30 05:32:20;;;;;;;1.65;1.10;;;;;;;22.16;26.57;100119.47;5114921;28;20486;-67
2022/04/30 05:34:45;;;;;;;2.25;1.25;;;;;;;22.32;26.49;100122.00;5114997;28;20024;-65
2022/04/30 05:37:11;;;;;;;2.60;1.20;;;;;;;22.48;26.52;100125.59;5114735;28;20175;-65
2022/04/30 05:39:37;;;;;;;2.30;0.95;;;;;;;22.43;26.55;100123.41;5115119;28;20051;-67
2022/04/30 05:42:03;;;;;;;3.50;1.30;;;;;;;22.51;26.42;100115.25;5114275;28;20070;-66
2022/04/30 05:44:28;;;;;;;1.10;0.82;;;;;;;22.52;26.58;100118.78;5114621;28;20100;-66
2022/04/30 05:46:54;;;;;;;1.75;0.85;;;;;;;22.69;26.25;100122.16;5114620;28;20114;-66
2022/04/30 05:49:19;;;;;;;1.67;0.75;;;;;;;22.57;26.67;100118.25;5114433;28;20115;-66
2022/04/30 05:51:45;;;;;;;2.05;1.00;;;;;;;22.46;26.81;100123.06;5113851;28;20114;-66
2022/04/30 05:54:10;;;;;;;1.00;0.70;;;;;;;22.38;26.75;100129.34;5114903;28;20044;-66
2022/04/30 05:56:36;;;;;;;4.80;0.75;;;;;;;22.34;26.77;100125.34;5095175;28;20085;-66
2022/04/30 05:59:01;;;;;;;2.10;0.98;;;;;;;22.29;26.68;100125.06;5094424;28;20088;-66
2022/04/30 06:01:27;;;;;;;1.42;0.70;;;;;;;22.27;26.71;100123.56;5103605;28;20031;-67
2022/04/30 06:03:53;;;;;;;1.27;0.80;;;;;;;22.20;26.55;100121.59;5114612;28;20070;-67
2022/04/30 06:06:20;;;;;;;1.10;0.80;;;;;;;22.18;26.73;100129.03;5114480;28;20028;-66
2022/04/30 06:08:46;;;;;;;1.60;0.80;;;;;;;22.18;26.68;100123.63;5114150;28;20027;-66
2022/04/30 06:11:12;;;;;;;1.85;0.98;;;;;;;22.18;26.98;100129.03;5113619;28;20027;-66
2022/04/30 06:13:38;;;;;;;2.78;1.45;;;;;;;22.19;27.11;100128.00;5114271;28;20038;-67
2022/04/30 06:16:04;;;;;;;1.38;0.73;;;;;;;22.23;27.12;100128.47;5113568;28;20402;-66
2022/04/30 06:18:29;;;;;;;2.47;0.93;;;;;;;22.25;27.26;100121.91;5113501;28;20088;-66
2022/04/30 06:20:55;;;;;;;1.17;0.80;;;;;;;22.27;27.13;100128.97;5113516;28;20023;-66
2022/04/30 06:23:20;;;;;;;2.67;0.88;;;;;;;22.29;27.19;100135.00;5113982;28;20032;-66
2022/04/30 06:25:46;;;;;;;2.33;0.88;;;;;;;22.32;27.13;100129.22;5114326;28;20462;-66
2022/04/30 06:28:13;;;;;;;1.65;1.00;;;;;;;22.30;27.07;100126.72;5113810;28;20031;-67
2022/04/30 06:30:39;;;;;;;5.22;0.98;;;;;;;22.32;27.12;100122.00;5112603;28;20463;-65
2022/04/30 06:33:05;;;;;;;3.20;1.25;;;;;;;22.34;27.02;100127.19;5113381;28;20100;-66
2022/04/30 06:35:31;;;;;;;3.90;1.08;;;;;;;22.32;27.03;100130.09;5114100;28;20106;-66
2022/04/30 06:37:56;;;;;;;2.08;1.00;;;;;;;22.33;27.07;100130.91;5113141;28;20131;-66
2022/04/30 06:40:22;;;;;;;6.07;0.95;;;;;;;22.33;26.99;100130.91;5113526;28;20031;-65
2022/04/30 06:42:47;;;;;;;1.05;0.60;;;;;;;22.35;27.24;100129.69;5112843;28;20031;-65
2022/04/30 06:45:16;;;;;;;0.40;0.32;;;;;;;22.44;27.80;100133.19;5114259;28;20035;-67
2022/04/30 06:47:42;;;;;;;1.10;0.43;;;;;;;22.58;27.45;100131.53;5113707;28;20027;-65
2022/04/30 06:50:09;;;;;;;1.80;0.50;;;;;;;22.63;27.12;100133.66;5113626;28;20386;-65
2022/04/30 06:57:06;;;;;;;2.40;0.80;;;;;;;22.64;26.97;100133.50;5112947;28;20577;-65
2022/04/30 06:58:05;;;;;;;1.52;0.73;;;;;;;22.64;26.41;100136.19;5113548;28;20542;-65
2022/04/30 07:03:15;;;;;;;1.67;0.80;;;;;;;22.57;25.91;100139.81;5112899;28;20030;-67
2022/04/30 07:05:41;;;;;;;3.08;0.90;;;;;;;22.48;25.43;100131.81;5112730;28;20070;-67
2022/04/30 07:08:06;;;;;;;3.83;0.50;;;;;;;22.42;25.45;100140.66;5113357;28;20055;-67
2022/04/30 07:10:32;;;;;;;2.75;0.80;;;;;;;22.37;24.85;100146.53;5113345;28;20043;-66
2022/04/30 07:12:58;;;;;;;3.63;0.43;;;;;;;22.35;24.43;100139.66;5112833;28;20031;-66
2022/04/30 07:15:23;;;;;;;2.03;0.40;;;;;;;22.33;23.96;100139.84;5112194;28;20048;-69
2022/04/30 07:17:48;;;;;;;1.17;0.60;;;;;;;22.34;23.97;100137.97;5112126;28;20106;-66
2022/04/30 07:20:14;;;;;;;2.47;0.50;;;;;;;22.33;23.81;100130.91;5113226;28;20031;-66
2022/04/30 07:22:39;;;;;;;4.95;0.75;;;;;;;22.31;23.85;100131.09;5112695;28;20028;-67
2022/04/30 07:25:06;;;;;;;1.60;0.55;;;;;;;22.36;23.65;100135.94;5113092;28;20031;-67
2022/04/30 07:27:31;;;;;;;1.48;0.40;;;;;;;22.37;23.53;100126.84;5112544;28;20031;-66
2022/04/30 07:29:57;;;;;;;2.38;0.50;;;;;;;22.40;23.28;100127.31;5112650;28;20103;-66
2022/04/30 07:32:22;;;;;;;1.00;0.30;;;;;;;22.44;23.45;100125.09;5112655;28;20119;-66
2022/04/30 07:34:48;;;;;;;0.70;0.50;;;;;;;22.46;23.95;100123.06;5113127;28;20050;-66
2022/04/30 07:37:14;;;;;;;0.50;0.45;;;;;;;22.48;23.23;100115.63;5111800;28;20084;-66
2022/04/30 07:39:39;;;;;;;2.33;0.52;;;;;;;22.50;23.27;100129.75;5112750;28;20565;-67
2022/04/30 07:42:05;;;;;;;1.20;0.65;;;;;;;22.51;23.21;100125.19;5112793;28;20118;-67
2022/04/30 07:44:31;;;;;;;1.55;0.60;;;;;;;22.48;23.14;100118.31;5112728;28;20028;-67
2022/04/30 07:46:57;;;;;;;1.88;0.80;;;;;;;22.42;22.66;100123.63;5112313;28;20034;-67
2022/04/30 07:49:22;;;;;;;3.65;0.88;;;;;;;22.36;23.20;100122.47;5112883;28;20486;-67
2022/04/30 07:51:55;;;;;;;2.83;0.30;;;;;;;22.33;23.27;100126.38;5116718;28;20062;-66
2022/04/30 07:54:25;;;;;;;1.65;0.60;;;;;;;22.34;23.00;100116.41;5116669;28;20027;-67
2022/04/30 07:56:53;;;;;;;0.77;0.43;;;;;;;22.36;23.52;100117.91;5116025;28;20133;-66
2022/04/30 07:59:19;;;;;;;3.50;0.50;;;;;;;22.37;23.05;100116.88;5116984;28;20027;-66
2022/04/30 08:01:44;;;;;;;1.08;0.50;;;;;;;22.37;23.13;100118.75;5116550;28;20031;-66
2022/04/30 08:04:10;;;;;;;1.02;0.70;;;;;;;22.34;22.89;100109.19;5116968;28;20074;-66
2022/04/30 08:06:35;;;;;;;0.98;0.50;;;;;;;22.34;22.40;100121.81;5115876;28;20112;-66
2022/04/30 08:09:01;;;;;;;0.57;0.40;;;;;;;22.31;22.32;100123.03;5116358;28;20028;-67
2022/04/30 08:11:26;;;;;;;4.70;1.17;;;;;;;22.27;22.25;100115.50;5116661;28;20119;-67
2022/04/30 08:13:52;;;;;;;3.03;0.70;;;;;;;22.23;22.18;100115.84;5116947;28;20032;-67
2022/04/30 08:16:17;;;;;;;0.73;0.52;;;;;;;22.22;22.61;100111.47;5116177;28;20087;-67
2022/04/30 08:18:43;;;;;;;0.75;0.57;;;;;;;22.22;22.42;100119.56;5116251;28;20054;-67
2022/04/30 08:21:08;;;;;;;3.03;0.60;;;;;;;22.20;22.78;100120.78;5116275;28;20505;-66
2022/04/30 08:23:36;;;;;;;1.60;0.80;;;;;;;22.21;22.30;100123.28;5116652;28;20052;-67
2022/04/30 08:26:03;;;;;;;1.55;0.50;;;;;;;22.21;21.99;100119.72;5116083;28;20542;-67
2022/04/30 08:28:29;;;;;;;1.67;0.70;;;;;;;22.20;21.70;100118.91;5115621;28;20035;-67
2022/04/30 08:30:54;;;;;;;1.00;0.57;;;;;;;22.19;21.64;100122.63;5115643;28;20054;-66
2022/04/30 08:33:20;;;;;;;2.05;0.70;;;;;;;22.17;21.91;100130.03;5115936;28;20059;-66
2022/04/30 08:35:46;;;;;;;3.03;0.80;;;;;;;22.16;21.81;100120.28;5115928;28;20032;-67
2022/04/30 08:38:12;;;;;;;0.80;0.60;;;;;;;22.16;21.66;100132.94;5116180;28;20023;-67
2022/04/30 08:40:42;;;;;;;0.90;0.60;;;;;;;22.14;22.26;100125.00;5115475;28;20445;-66
2022/04/30 08:43:09;;;;;;;3.63;0.73;;;;;;;22.16;22.42;100131.06;5116053;28;20071;-66
2022/04/30 08:45:37;;;;;;;1.65;0.60;;;;;;;22.17;22.29;100132.75;5115170;28;20038;-66
2022/04/30 08:48:12;;;;;;;0.80;0.55;;;;;;;22.20;22.16;100121.59;5116014;28;20031;-66
2022/04/30 08:50:40;;;;;;;0.85;0.70;;;;;;;22.20;22.32;100126.16;5115689;28;20455;-66
2022/04/30 08:53:05;;;;;;;3.40;0.50;;;;;;;22.21;22.66;100119.72;5115184;28;20159;-66
2022/04/30 08:55:31;;;;;;;1.10;0.60;;;;;;;22.24;22.64;100122.06;5116120;28;20056;-66
2022/04/30 08:57:57;;;;;;;1.33;0.60;;;;;;;22.23;22.36;100121.25;5115031;28;20027;-66
2022/04/30 09:00:22;;;;;;;1.27;0.50;;;;;;;22.22;22.68;100113.31;5109560;27;20052;-65
2022/04/30 09:02:56;;;;;;;2.45;0.50;;;;;;;22.22;22.69;100122.25;5119597;27;20068;-65
2022/04/30 09:05:22;;;;;;;1.45;0.50;;;;;;;22.21;22.49;100107.09;5108254;28;20031;-65
2022/04/30 09:07:55;;;;;;;4.10;0.80;;;;;;;22.19;22.72;100106.44;5115693;28;20458;-66
2022/04/30 09:10:26;;;;;;;1.92;0.75;;;;;;;22.17;22.75;100100.41;5115311;28;20035;-66
2022/04/30 09:12:52;;;;;;;1.25;0.60;;;;;;;22.16;22.50;100111.38;5114800;28;20027;-66
2022/04/30 09:15:18;;;;;;;0.50;0.40;;;;;;;22.16;22.55;100112.19;5115075;28;20108;-66
2022/04/30 09:17:56;;;;;;;2.05;1.05;;;;;;;22.17;22.85;100095.00;5115398;28;20482;-66
2022/04/30 09:20:21;;;;;;;0.93;0.50;;;;;;;22.21;22.77;100099.03;5115329;28;20042;-66
2022/04/30 09:22:47;;;;;;;1.70;0.50;;;;;;;22.24;22.36;100101.34;5114827;28;20428;-66
2022/04/30 09:25:15;;;;;;;2.38;0.50;;;;;;;22.23;22.34;100094.28;5114904;28;20055;-66
2022/04/30 09:27:49;;;;;;;1.35;0.43;;;;;;;22.22;22.83;100098.00;5094729;28;20487;-66
2022/04/30 09:30:20;;;;;;;1.63;0.77;;;;;;;22.24;22.98;100095.97;5114146;28;20465;-66
2022/04/30 09:32:56;;;;;;;0.57;0.40;;;;;;;22.27;23.00;100092.06;5114227;28;20038;-66
2022/04/30 09:38:06;;;;;;;1.17;0.63;;;;;;;22.30;23.06;100093.53;5095008;28;20042;-65
2022/04/30 09:40:32;;;;;;;1.80;0.70;;;;;;;22.29;23.36;100092.72;5129001;27;20036;-64
2022/04/30 09:42:58;;;;;;;0.93;0.50;;;;;;;22.31;22.90;100097.91;5116281;27;20093;-67
2022/04/30 09:45:32;;;;;;;1.88;0.60;;;;;;;22.32;22.57;100086.09;5114354;28;20035;-64
2022/04/30 09:53:55;;;;;;;3.00;0.77;;;;;;;22.30;23.37;100080.06;5114505;28;20070;-65
2022/04/30 09:56:35;;;;;;;2.25;0.70;;;;;;;22.38;22.82;100079.97;5101312;27;20042;-65
2022/04/30 09:59:10;;;;;;;1.63;0.57;;;;;;;22.39;22.70;100079.78;5099846;27;20405;-66
2022/04/30 10:01:37;;;;;;;1.83;0.90;;;;;;;22.42;22.20;100081.31;5127587;27;20438;-65
2022/04/30 10:04:09;;;;;;;2.47;0.80;;;;;;;22.41;22.47;100076.94;5125431;27;20088;-65
2022/04/30 10:06:39;;;;;;;1.70;0.80;;;;;;;22.40;22.36;100077.94;5113807;28;20130;-66
2022/04/30 10:09:09;;;;;;;0.90;0.57;;;;;;;22.41;22.37;100079.63;5131493;27;20050;-65
2022/04/30 10:12:01;;;;;;;1.33;0.60;;;;;;;22.45;22.52;100072.03;5114236;27;20056;-65
2022/04/30 10:14:51;;;;;;;2.22;1.70;;;;;;;22.47;22.25;100084.28;5113640;28;20031;-65
2022/04/30 10:17:17;;;;;;;1.00;0.50;;;;;;;22.46;22.06;100079.09;5103934;27;20043;-65
2022/04/30 10:19:45;;;;;;;1.17;0.70;;;;;;;22.47;21.71;100086.97;5095781;28;20048;-66
2022/04/30 10:22:17;;;;;;;1.25;0.60;;;;;;;22.47;21.86;100086.97;5099166;27;20036;-65
2022/04/30 10:24:48;;;;;;;0.95;0.70;;;;;;;22.47;21.80;100080.78;5093746;28;20123;-65
2022/04/30 10:27:14;;;;;;;1.25;0.77;;;;;;;22.44;22.27;100071.16;5096964;28;20036;-62
2022/04/30 10:29:55;;;;;;;1.10;0.70;;;;;;;22.47;22.56;100080.78;5093028;28;20044;-65
2022/04/30 10:32:27;;;;;;;1.23;0.80;;;;;;;22.49;22.71;100073.34;5101196;28;20490;-66
2022/04/30 10:34:53;;;;;;;1.42;0.70;;;;;;;22.54;22.84;100069.06;5094393;27;20127;-66
2022/04/30 10:37:29;;;;;;;1.95;0.70;;;;;;;22.60;22.73;100075.56;5092582;28;20085;-66
2022/04/30 10:39:58;;;;;;;1.50;0.50;;;;;;;22.62;22.50;100068.13;5108656;28;20034;-65
2022/04/30 10:42:29;;;;;;;1.83;0.70;;;;;;;22.64;23.17;100076.00;5100683;28;20036;-66
2022/04/30 10:44:55;;;;;;;3.67;0.95;;;;;;;22.65;22.81;100075.00;5093329;28;20122;-65
2022/04/30 10:47:21;;;;;;;1.83;0.63;;;;;;;22.66;22.33;100074.78;5074995;28;20074;-65
2022/04/30 10:49:46;;;;;;;0.93;0.50;;;;;;;22.62;22.61;100069.97;5098899;28;20427;-66
2022/04/30 10:52:21;;;;;;;0.95;0.70;;;;;;;22.59;22.14;100065.78;5092443;28;20111;-66
2022/04/30 10:54:49;;;;;;;1.05;0.50;;;;;;;22.58;23.86;100058.72;5096618;28;20664;-66
2022/04/30 10:57:15;;;;;;;1.67;0.60;;;;;;;22.64;23.33;100067.91;5095917;28;20031;-66
2022/04/30 10:59:40;;;;;;;2.42;0.85;;;;;;;22.67;22.81;100072.94;5092419;28;20032;-66
2022/04/30 11:02:09;;;;;;;3.08;0.70;;;;;;;22.66;22.79;100071.28;5092356;28;20055;-66
2022/04/30 11:04:35;;;;;;;2.95;0.70;;;;;;;22.68;22.74;100070.03;5092646;28;20032;-65
2022/04/30 11:07:02;;;;;;;2.17;0.70;;;;;;;22.69;22.09;100068.22;5095939;28;20402;-64
2022/04/30 11:09:27;;;;;;;1.13;0.70;;;;;;;22.67;21.81;100067.56;5092243;28;20032;-64
2022/04/30 11:11:53;;;;;;;0.77;0.52;;;;;;;22.66;22.26;100065.88;5092249;28;20035;-65
2022/04/30 11:14:21;;;;;;;2.22;0.70;;;;;;;22.64;23.44;100062.53;5092199;28;20506;-65
2022/04/30 11:16:52;;;;;;;0.50;0.40;;;;;;;22.70;23.24;100067.19;5096608;28;20511;-65
2022/04/30 11:19:23;;;;;;;1.50;0.52;;;;;;;22.70;23.61;100062.59;5092184;28;20039;-65
2022/04/30 11:21:53;;;;;;;1.55;0.68;;;;;;;22.71;23.55;100069.69;5092128;28;20070;-66
2022/04/30 11:24:29;;;;;;;1.67;0.73;;;;;;;22.73;23.29;100066.78;5107635;28;20581;-65
2022/04/30 11:27:03;;;;;;;1.27;0.65;;;;;;;22.74;22.81;100064.94;5105663;28;20514;-66
2022/04/30 11:29:30;;;;;;;0.98;0.60;;;;;;;22.72;23.01;100070.50;5092156;28;20817;-65
2022/04/30 11:31:56;;;;;;;1.58;0.85;;;;;;;22.69;22.28;100081.69;5092225;28;20032;-64
2022/04/30 11:34:23;;;;;;;2.55;0.77;;;;;;;22.69;23.21;100076.28;5091948;28;20028;-66
2022/04/30 11:36:53;;;;;;;5.20;0.77;;;;;;;22.74;23.00;100081.13;5095074;28;20530;-66
2022/04/30 11:39:20;;;;;;;0.98;0.68;;;;;;;22.77;22.96;100065.38;5107404;28;20038;-66
2022/04/30 11:41:48;;;;;;;2.00;1.02;;;;;;;22.80;22.93;100062.31;5110744;28;20039;-65
2022/04/30 11:44:16;;;;;;;1.17;0.80;;;;;;;22.81;23.09;100055.91;5109656;28;20056;-65
2022/04/30 11:46:44;;;;;;;3.25;0.90;;;;;;;22.85;22.71;100062.59;5099131;28;20028;-65
2022/04/30 11:49:14;;;;;;;4.78;0.90;;;;;;;22.86;22.84;100053.50;5111259;28;20496;-66
2022/04/30 11:51:41;;;;;;;0.98;0.68;;;;;;;22.88;22.63;100061.38;5103930;28;20105;-66
2022/04/30 11:54:12;;;;;;;2.85;0.70;;;;;;;22.89;23.06;100054.97;5101682;28;20043;-66
2022/04/30 11:56:39;;;;;;;;;;;;;;;22.84;23.65;100063.63;5100122;28;20027;-67
2022/04/30 11:59:05;;;;;;;1.60;0.70;;;;;;;22.85;24.42;100064.44;5104039;28;19922;-65
2022/04/30 12:01:35;;;;;;;0.90;0.60;;;;;;;22.82;24.88;100060.28;5103803;28;20093;-65